sensor_id;sensor_type;location;lat;lon;timestamp;P1;durP1;ratioP1;P2;durP2;ratioP2
41221;SDS011;26952;42.884;23.918;2023-02-01T00:02:23;6.63;;;4.65;;
41221;SDS011;26952;42.884;23.918;2023-02-01T00:04:48;57.10;;;33.53;;
41221;SDS011;26952;42.884;23.918;2023-02-01T00:07:14;19.50;;;13.38;;
41221;SDS011;26952;42.884;23.918;2023-02-01T00:09:39;21.83;;;14.00;;
41221;SDS011;26952;42.884;23.918;2023-02-01T00:12:04;9.02;;;7.03;;
41221;SDS011;26952;42.884;23.918;2023-02-01T00:14:30;6.40;;;4.65;;
41221;SDS011;26952;42.884;23.918;2023-02-01T00:17:03;5.72;;;4.43;;
41221;SDS011;26952;42.884;23.918;2023-02-01T00:19:28;5.20;;;4.55;;
41221;SDS011;26952;42.884;23.918;2023-02-01T00:21:54;8.43;;;4.72;;
41221;SDS011;26952;42.884;23.918;2023-02-01T00:24:19;4.72;;;3.78;;
41221;SDS011;26952;42.884;23.918;2023-02-01T00:26:45;6.05;;;4.20;;
41221;SDS011;26952;42.884;23.918;2023-02-01T00:29:11;5.60;;;3.90;;
41221;SDS011;26952;42.884;23.918;2023-02-01T00:31:39;4.55;;;3.72;;
41221;SDS011;26952;42.884;23.918;2023-02-01T00:34:04;5.47;;;3.53;;
41221;SDS011;26952;42.884;23.918;2023-02-01T00:36:30;4.70;;;2.83;;
41221;SDS011;26952;42.884;23.918;2023-02-01T00:38:56;4.43;;;3.33;;
41221;SDS011;26952;42.884;23.918;2023-02-01T00:41:22;5.18;;;3.03;;
41221;SDS011;26952;42.884;23.918;2023-02-01T00:43:48;3.72;;;3.15;;
41221;SDS011;26952;42.884;23.918;2023-02-01T00:46:14;4.43;;;3.08;;
41221;SDS011;26952;42.884;23.918;2023-02-01T00:48:41;3.58;;;2.90;;
41221;SDS011;26952;42.884;23.918;2023-02-01T00:51:08;4.15;;;2.83;;
41221;SDS011;26952;42.884;23.918;2023-02-01T00:53:36;4.47;;;2.90;;
41221;SDS011;26952;42.884;23.918;2023-02-01T00:56:01;3.25;;;2.90;;
41221;SDS011;26952;42.884;23.918;2023-02-01T00:58:27;3.00;;;2.58;;
41221;SDS011;26952;42.884;23.918;2023-02-01T01:01:09;6.40;;;2.80;;
41221;SDS011;26952;42.884;23.918;2023-02-01T01:03:38;3.58;;;2.67;;
41221;SDS011;26952;42.884;23.918;2023-02-01T01:06:07;2.55;;;2.30;;
41221;SDS011;26952;42.884;23.918;2023-02-01T01:08:34;4.75;;;2.13;;
41221;SDS011;26952;42.884;23.918;2023-02-01T01:11:11;4.90;;;2.28;;
41221;SDS011;26952;42.884;23.918;2023-02-01T01:13:40;2.83;;;2.23;;
41221;SDS011;26952;42.884;23.918;2023-02-01T01:16:06;2.15;;;1.92;;
41221;SDS011;26952;42.884;23.918;2023-02-01T01:18:32;6.43;;;2.80;;
41221;SDS011;26952;42.884;23.918;2023-02-01T01:20:59;5.15;;;2.30;;
41221;SDS011;26952;42.884;23.918;2023-02-01T01:23:25;3.33;;;2.28;;
41221;SDS011;26952;42.884;23.918;2023-02-01T01:25:50;3.58;;;2.53;;
41221;SDS011;26952;42.884;23.918;2023-02-01T01:28:16;3.65;;;2.35;;
41221;SDS011;26952;42.884;23.918;2023-02-01T01:30:41;4.85;;;2.67;;
41221;SDS011;26952;42.884;23.918;2023-02-01T01:33:07;3.08;;;2.67;;
41221;SDS011;26952;42.884;23.918;2023-02-01T01:35:32;3.40;;;2.33;;
41221;SDS011;26952;42.884;23.918;2023-02-01T01:37:59;3.80;;;2.92;;
41221;SDS011;26952;42.884;23.918;2023-02-01T01:40:25;4.90;;;2.50;;
41221;SDS011;26952;42.884;23.918;2023-02-01T01:42:51;3.75;;;2.40;;
41221;SDS011;26952;42.884;23.918;2023-02-01T01:48:04;3.75;;;2.08;;
41221;SDS011;26952;42.884;23.918;2023-02-01T01:50:38;5.75;;;2.42;;
41221;SDS011;26952;42.884;23.918;2023-02-01T01:53:07;3.88;;;2.95;;
41221;SDS011;26952;42.884;23.918;2023-02-01T01:55:37;3.70;;;3.20;;
41221;SDS011;26952;42.884;23.918;2023-02-01T01:58:08;2.97;;;2.38;;
41221;SDS011;26952;42.884;23.918;2023-02-01T02:00:37;3.13;;;2.53;;
41221;SDS011;26952;42.884;23.918;2023-02-01T02:03:06;3.47;;;2.63;;
41221;SDS011;26952;42.884;23.918;2023-02-01T02:05:37;4.05;;;2.63;;
41221;SDS011;26952;42.884;23.918;2023-02-01T02:08:02;2.90;;;2.42;;
41221;SDS011;26952;42.884;23.918;2023-02-01T02:10:28;4.30;;;2.72;;
41221;SDS011;26952;42.884;23.918;2023-02-01T02:13:13;4.47;;;2.42;;
41221;SDS011;26952;42.884;23.918;2023-02-01T02:15:42;4.43;;;2.45;;
41221;SDS011;26952;42.884;23.918;2023-02-01T02:18:15;3.90;;;2.50;;
41221;SDS011;26952;42.884;23.918;2023-02-01T02:26:34;2.80;;;2.60;;
41221;SDS011;26952;42.884;23.918;2023-02-01T02:35:07;5.72;;;3.40;;
41221;SDS011;26952;42.884;23.918;2023-02-01T02:42:55;3.80;;;3.10;;
41221;SDS011;26952;42.884;23.918;2023-02-01T02:46:03;3.97;;;2.85;;
41221;SDS011;26952;42.884;23.918;2023-02-01T02:48:52;3.22;;;2.92;;
41221;SDS011;26952;42.884;23.918;2023-02-01T02:51:29;5.70;;;3.13;;
41221;SDS011;26952;42.884;23.918;2023-02-01T02:54:21;4.10;;;2.95;;
41221;SDS011;26952;42.884;23.918;2023-02-01T02:57:09;3.58;;;3.08;;
41221;SDS011;26952;42.884;23.918;2023-02-01T02:59:57;5.20;;;3.22;;
41221;SDS011;26952;42.884;23.918;2023-02-01T03:02:45;5.25;;;3.33;;
41221;SDS011;26952;42.884;23.918;2023-02-01T03:05:34;4.45;;;3.20;;
41221;SDS011;26952;42.884;23.918;2023-02-01T03:16:09;4.45;;;3.20;;
41221;SDS011;26952;42.884;23.918;2023-02-01T03:21:10;3.58;;;2.80;;
41221;SDS011;26952;42.884;23.918;2023-02-01T03:23:41;3.88;;;2.83;;
41221;SDS011;26952;42.884;23.918;2023-02-01T03:26:11;3.58;;;3.28;;
41221;SDS011;26952;42.884;23.918;2023-02-01T03:28:44;3.58;;;3.05;;
41221;SDS011;26952;42.884;23.918;2023-02-01T03:31:19;4.15;;;2.95;;
41221;SDS011;26952;42.884;23.918;2023-02-01T03:33:45;4.78;;;3.22;;
41221;SDS011;26952;42.884;23.918;2023-02-01T03:41:24;3.05;;;2.75;;
41221;SDS011;26952;42.884;23.918;2023-02-01T03:43:59;2.83;;;2.55;;
41221;SDS011;26952;42.884;23.918;2023-02-01T03:46:32;5.18;;;3.08;;
41221;SDS011;26952;42.884;23.918;2023-02-01T03:49:01;4.43;;;2.78;;
41221;SDS011;26952;42.884;23.918;2023-02-01T03:51:31;3.22;;;2.92;;
41221;SDS011;26952;42.884;23.918;2023-02-01T03:53:58;4.80;;;3.22;;
41221;SDS011;26952;42.884;23.918;2023-02-01T03:56:25;5.20;;;3.00;;
41221;SDS011;26952;42.884;23.918;2023-02-01T03:58:53;3.20;;;3.00;;
41221;SDS011;26952;42.884;23.918;2023-02-01T04:01:25;3.55;;;2.95;;
41221;SDS011;26952;42.884;23.918;2023-02-01T04:03:52;3.60;;;3.40;;
41221;SDS011;26952;42.884;23.918;2023-02-01T04:06:17;3.20;;;2.60;;
41221;SDS011;26952;42.884;23.918;2023-02-01T04:08:43;3.15;;;2.92;;
41221;SDS011;26952;42.884;23.918;2023-02-01T04:11:08;4.07;;;3.03;;
41221;SDS011;26952;42.884;23.918;2023-02-01T04:13:33;3.42;;;3.13;;
41221;SDS011;26952;42.884;23.918;2023-02-01T04:15:59;3.78;;;3.20;;
41221;SDS011;26952;42.884;23.918;2023-02-01T04:18:24;3.33;;;3.10;;
41221;SDS011;26952;42.884;23.918;2023-02-01T04:20:49;4.18;;;3.65;;
41221;SDS011;26952;42.884;23.918;2023-02-01T04:23:15;3.97;;;3.58;;
41221;SDS011;26952;42.884;23.918;2023-02-01T04:25:40;16.67;;;10.85;;
41221;SDS011;26952;42.884;23.918;2023-02-01T04:28:06;24.77;;;13.82;;
41221;SDS011;26952;42.884;23.918;2023-02-01T04:30:32;22.27;;;13.43;;
41221;SDS011;26952;42.884;23.918;2023-02-01T04:32:57;16.70;;;10.23;;
41221;SDS011;26952;42.884;23.918;2023-02-01T04:35:23;18.55;;;10.65;;
41221;SDS011;26952;42.884;23.918;2023-02-01T04:37:48;9.02;;;5.60;;
41221;SDS011;26952;42.884;23.918;2023-02-01T04:40:14;5.82;;;4.03;;
41221;SDS011;26952;42.884;23.918;2023-02-01T04:42:39;4.22;;;3.33;;
41221;SDS011;26952;42.884;23.918;2023-02-01T04:45:05;3.67;;;3.38;;
41221;SDS011;26952;42.884;23.918;2023-02-01T04:47:31;3.65;;;2.70;;
41221;SDS011;26952;42.884;23.918;2023-02-01T04:49:56;5.28;;;3.30;;
41221;SDS011;26952;42.884;23.918;2023-02-01T04:52:21;3.25;;;2.53;;
41221;SDS011;26952;42.884;23.918;2023-02-01T04:54:47;4.50;;;2.50;;
41221;SDS011;26952;42.884;23.918;2023-02-01T04:57:12;4.70;;;2.60;;
41221;SDS011;26952;42.884;23.918;2023-02-01T04:59:39;4.00;;;2.45;;
41221;SDS011;26952;42.884;23.918;2023-02-01T05:02:04;2.53;;;2.33;;
41221;SDS011;26952;42.884;23.918;2023-02-01T05:04:29;2.85;;;2.20;;
41221;SDS011;26952;42.884;23.918;2023-02-01T05:06:55;3.00;;;2.45;;
41221;SDS011;26952;42.884;23.918;2023-02-01T05:09:20;2.88;;;2.58;;
41221;SDS011;26952;42.884;23.918;2023-02-01T05:11:46;2.85;;;2.55;;
41221;SDS011;26952;42.884;23.918;2023-02-01T05:14:30;2.10;;;1.90;;
41221;SDS011;26952;42.884;23.918;2023-02-01T05:16:56;2.50;;;2.30;;
41221;SDS011;26952;42.884;23.918;2023-02-01T05:19:21;2.60;;;2.20;;
41221;SDS011;26952;42.884;23.918;2023-02-01T05:21:47;2.17;;;1.98;;
41221;SDS011;26952;42.884;23.918;2023-02-01T05:24:12;2.53;;;2.08;;
41221;SDS011;26952;42.884;23.918;2023-02-01T05:26:41;2.42;;;2.22;;
41221;SDS011;26952;42.884;23.918;2023-02-01T05:29:08;2.90;;;2.42;;
41221;SDS011;26952;42.884;23.918;2023-02-01T05:31:35;2.60;;;2.35;;
41221;SDS011;26952;42.884;23.918;2023-02-01T05:34:01;2.30;;;2.10;;
41221;SDS011;26952;42.884;23.918;2023-02-01T05:36:26;4.30;;;2.38;;
41221;SDS011;26952;42.884;23.918;2023-02-01T05:38:52;2.25;;;2.05;;
41221;SDS011;26952;42.884;23.918;2023-02-01T05:41:17;2.72;;;2.30;;
41221;SDS011;26952;42.884;23.918;2023-02-01T05:43:43;3.17;;;2.45;;
41221;SDS011;26952;42.884;23.918;2023-02-01T05:46:08;2.60;;;2.28;;
41221;SDS011;26952;42.884;23.918;2023-02-01T05:48:37;2.55;;;2.33;;
41221;SDS011;26952;42.884;23.918;2023-02-01T05:51:03;2.83;;;2.40;;
41221;SDS011;26952;42.884;23.918;2023-02-01T05:53:28;4.03;;;2.35;;
41221;SDS011;26952;42.884;23.918;2023-02-01T05:55:54;2.92;;;2.05;;
41221;SDS011;26952;42.884;23.918;2023-02-01T05:58:19;2.75;;;2.47;;
41221;SDS011;26952;42.884;23.918;2023-02-01T06:00:45;23.33;;;15.98;;
41221;SDS011;26952;42.884;23.918;2023-02-01T06:03:10;5.10;;;3.13;;
41221;SDS011;26952;42.884;23.918;2023-02-01T06:05:35;5.82;;;2.72;;
41221;SDS011;26952;42.884;23.918;2023-02-01T06:08:02;3.08;;;2.38;;
41221;SDS011;26952;42.884;23.918;2023-02-01T06:10:27;3.70;;;2.47;;
41221;SDS011;26952;42.884;23.918;2023-02-01T06:12:52;3.47;;;2.17;;
41221;SDS011;26952;42.884;23.918;2023-02-01T06:15:18;4.38;;;2.95;;
41221;SDS011;26952;42.884;23.918;2023-02-01T06:17:44;3.08;;;2.78;;
41221;SDS011;26952;42.884;23.918;2023-02-01T06:20:11;9.23;;;7.38;;
41221;SDS011;26952;42.884;23.918;2023-02-01T06:22:37;7.53;;;5.97;;
41221;SDS011;26952;42.884;23.918;2023-02-01T06:25:04;9.45;;;6.65;;
41221;SDS011;26952;42.884;23.918;2023-02-01T06:27:30;4.57;;;2.95;;
41221;SDS011;26952;42.884;23.918;2023-02-01T06:29:56;3.67;;;2.75;;
41221;SDS011;26952;42.884;23.918;2023-02-01T06:32:22;3.35;;;2.75;;
41221;SDS011;26952;42.884;23.918;2023-02-01T06:34:48;6.22;;;4.32;;
41221;SDS011;26952;42.884;23.918;2023-02-01T06:37:14;4.50;;;3.45;;
41221;SDS011;26952;42.884;23.918;2023-02-01T06:39:39;44.08;;;18.50;;
41221;SDS011;26952;42.884;23.918;2023-02-01T06:42:05;56.10;;;24.65;;
41221;SDS011;26952;42.884;23.918;2023-02-01T06:44:30;7.75;;;5.93;;
41221;SDS011;26952;42.884;23.918;2023-02-01T06:46:56;10.82;;;6.47;;
41221;SDS011;26952;42.884;23.918;2023-02-01T06:49:21;15.30;;;8.68;;
41221;SDS011;26952;42.884;23.918;2023-02-01T06:51:47;49.88;;;27.02;;
41221;SDS011;26952;42.884;23.918;2023-02-01T06:54:12;23.58;;;15.63;;
41221;SDS011;26952;42.884;23.918;2023-02-01T06:56:38;18.70;;;12.15;;
41221;SDS011;26952;42.884;23.918;2023-02-01T06:59:04;17.48;;;10.15;;
41221;SDS011;26952;42.884;23.918;2023-02-01T07:01:30;15.25;;;9.80;;
41221;SDS011;26952;42.884;23.918;2023-02-01T07:03:56;13.40;;;7.13;;
41221;SDS011;26952;42.884;23.918;2023-02-01T07:06:22;10.52;;;6.07;;
41221;SDS011;26952;42.884;23.918;2023-02-01T07:08:47;4.35;;;3.65;;
41221;SDS011;26952;42.884;23.918;2023-02-01T07:11:14;5.88;;;3.42;;
41221;SDS011;26952;42.884;23.918;2023-02-01T07:13:41;4.68;;;3.35;;
41221;SDS011;26952;42.884;23.918;2023-02-01T07:16:09;4.78;;;3.92;;
41221;SDS011;26952;42.884;23.918;2023-02-01T07:18:37;5.85;;;4.38;;
41221;SDS011;26952;42.884;23.918;2023-02-01T07:21:03;13.85;;;10.52;;
41221;SDS011;26952;42.884;23.918;2023-02-01T07:23:29;7.78;;;5.85;;
41221;SDS011;26952;42.884;23.918;2023-02-01T07:25:55;7.50;;;5.28;;
41221;SDS011;26952;42.884;23.918;2023-02-01T07:28:25;5.38;;;4.55;;
41221;SDS011;26952;42.884;23.918;2023-02-01T07:30:51;5.68;;;4.72;;
41221;SDS011;26952;42.884;23.918;2023-02-01T07:33:20;4.60;;;3.90;;
41221;SDS011;26952;42.884;23.918;2023-02-01T07:35:48;5.63;;;5.30;;
41221;SDS011;26952;42.884;23.918;2023-02-01T07:38:14;5.75;;;5.05;;
41221;SDS011;26952;42.884;23.918;2023-02-01T07:40:40;6.15;;;4.70;;
41221;SDS011;26952;42.884;23.918;2023-02-01T07:43:05;4.75;;;4.28;;
41221;SDS011;26952;42.884;23.918;2023-02-01T07:45:32;5.03;;;4.63;;
41221;SDS011;26952;42.884;23.918;2023-02-01T07:47:58;9.40;;;8.15;;
41221;SDS011;26952;42.884;23.918;2023-02-01T07:50:24;5.20;;;4.70;;
41221;SDS011;26952;42.884;23.918;2023-02-01T07:52:49;5.78;;;5.38;;
41221;SDS011;26952;42.884;23.918;2023-02-01T07:55:14;5.65;;;5.15;;
41221;SDS011;26952;42.884;23.918;2023-02-01T07:57:40;5.85;;;5.25;;
41221;SDS011;26952;42.884;23.918;2023-02-01T08:00:06;5.32;;;4.60;;
41221;SDS011;26952;42.884;23.918;2023-02-01T08:02:51;4.70;;;4.40;;
41221;SDS011;26952;42.884;23.918;2023-02-01T08:05:16;3.90;;;3.50;;
41221;SDS011;26952;42.884;23.918;2023-02-01T08:07:42;4.50;;;4.00;;
41221;SDS011;26952;42.884;23.918;2023-02-01T08:10:07;5.35;;;3.47;;
41221;SDS011;26952;42.884;23.918;2023-02-01T08:12:36;3.20;;;2.90;;
41221;SDS011;26952;42.884;23.918;2023-02-01T08:15:02;25.95;;;14.32;;
41221;SDS011;26952;42.884;23.918;2023-02-01T08:17:28;16.13;;;10.13;;
41221;SDS011;26952;42.884;23.918;2023-02-01T08:19:54;13.88;;;8.10;;
41221;SDS011;26952;42.884;23.918;2023-02-01T08:22:20;16.05;;;8.98;;
41221;SDS011;26952;42.884;23.918;2023-02-01T08:24:47;12.90;;;10.43;;
41221;SDS011;26952;42.884;23.918;2023-02-01T08:27:13;27.08;;;21.48;;
41221;SDS011;26952;42.884;23.918;2023-02-01T08:29:38;25.80;;;16.83;;
41221;SDS011;26952;42.884;23.918;2023-02-01T08:32:04;21.85;;;14.07;;
41221;SDS011;26952;42.884;23.918;2023-02-01T08:34:30;20.17;;;12.98;;
41221;SDS011;26952;42.884;23.918;2023-02-01T08:36:55;18.70;;;10.65;;
41221;SDS011;26952;42.884;23.918;2023-02-01T08:39:24;12.10;;;8.30;;
41221;SDS011;26952;42.884;23.918;2023-02-01T08:41:49;10.57;;;6.75;;
41221;SDS011;26952;42.884;23.918;2023-02-01T08:44:35;8.27;;;4.75;;
41221;SDS011;26952;42.884;23.918;2023-02-01T08:47:01;7.63;;;4.30;;
41221;SDS011;26952;42.884;23.918;2023-02-01T08:49:27;5.00;;;4.15;;
41221;SDS011;26952;42.884;23.918;2023-02-01T08:51:53;5.38;;;4.55;;
41221;SDS011;26952;42.884;23.918;2023-02-01T08:54:18;10.55;;;7.88;;
41221;SDS011;26952;42.884;23.918;2023-02-01T08:56:43;41.58;;;24.17;;
41221;SDS011;26952;42.884;23.918;2023-02-01T08:59:09;44.63;;;28.60;;
41221;SDS011;26952;42.884;23.918;2023-02-01T09:01:34;38.63;;;27.88;;
41221;SDS011;26952;42.884;23.918;2023-02-01T09:03:59;36.90;;;24.27;;
41221;SDS011;26952;42.884;23.918;2023-02-01T09:06:25;35.28;;;23.85;;
41221;SDS011;26952;42.884;23.918;2023-02-01T09:08:50;31.73;;;22.60;;
41221;SDS011;26952;42.884;23.918;2023-02-01T09:11:16;34.28;;;22.67;;
41221;SDS011;26952;42.884;23.918;2023-02-01T09:13:44;32.85;;;25.15;;
41221;SDS011;26952;42.884;23.918;2023-02-01T09:16:09;29.95;;;23.25;;
41221;SDS011;26952;42.884;23.918;2023-02-01T09:18:35;25.30;;;19.67;;
41221;SDS011;26952;42.884;23.918;2023-02-01T09:21:07;25.63;;;19.75;;
41221;SDS011;26952;42.884;23.918;2023-02-01T09:23:33;24.17;;;17.25;;
41221;SDS011;26952;42.884;23.918;2023-02-01T09:26:03;20.05;;;14.55;;
41221;SDS011;26952;42.884;23.918;2023-02-01T09:28:29;8.13;;;7.32;;
41221;SDS011;26952;42.884;23.918;2023-02-01T09:30:58;13.73;;;11.60;;
41221;SDS011;26952;42.884;23.918;2023-02-01T09:33:25;10.65;;;9.65;;
41221;SDS011;26952;42.884;23.918;2023-02-01T09:36:02;12.32;;;11.15;;
41221;SDS011;26952;42.884;23.918;2023-02-01T09:38:29;10.85;;;9.75;;
41221;SDS011;26952;42.884;23.918;2023-02-01T09:40:56;10.65;;;9.65;;
41221;SDS011;26952;42.884;23.918;2023-02-01T09:48:38;10.35;;;9.43;;
41221;SDS011;26952;42.884;23.918;2023-02-01T09:51:11;13.90;;;12.67;;
41221;SDS011;26952;42.884;23.918;2023-02-01T09:53:41;12.50;;;11.40;;
41221;SDS011;26952;42.884;23.918;2023-02-01T09:56:12;9.63;;;8.93;;
41221;SDS011;26952;42.884;23.918;2023-02-01T09:59:06;10.43;;;9.52;;
41221;SDS011;26952;42.884;23.918;2023-02-01T10:01:48;6.63;;;5.78;;
41221;SDS011;26952;42.884;23.918;2023-02-01T10:04:14;10.95;;;6.07;;
41221;SDS011;26952;42.884;23.918;2023-02-01T10:09:22;7.32;;;5.07;;
41221;SDS011;26952;42.884;23.918;2023-02-01T10:12:13;8.73;;;5.55;;
41221;SDS011;26952;42.884;23.918;2023-02-01T10:14:50;6.25;;;5.15;;
41221;SDS011;26952;42.884;23.918;2023-02-01T10:25:41;7.40;;;5.45;;
41221;SDS011;26952;42.884;23.918;2023-02-01T10:28:18;8.23;;;6.57;;
41221;SDS011;26952;42.884;23.918;2023-02-01T10:30:47;9.02;;;6.70;;
41221;SDS011;26952;42.884;23.918;2023-02-01T10:33:47;8.98;;;7.93;;
41221;SDS011;26952;42.884;23.918;2023-02-01T10:39:26;12.73;;;11.63;;
41221;SDS011;26952;42.884;23.918;2023-02-01T10:41:52;13.38;;;12.07;;
41221;SDS011;26952;42.884;23.918;2023-02-01T10:44:25;8.13;;;7.35;;
41221;SDS011;26952;42.884;23.918;2023-02-01T10:46:52;12.07;;;10.95;;
41221;SDS011;26952;42.884;23.918;2023-02-01T10:49:41;11.30;;;10.40;;
41221;SDS011;26952;42.884;23.918;2023-02-01T10:52:15;12.68;;;9.98;;
41221;SDS011;26952;42.884;23.918;2023-02-01T10:54:45;11.30;;;10.30;;
41221;SDS011;26952;42.884;23.918;2023-02-01T10:57:19;11.02;;;10.02;;
41221;SDS011;26952;42.884;23.918;2023-02-01T10:59:50;14.52;;;7.63;;
41221;SDS011;26952;42.884;23.918;2023-02-01T11:04:58;9.18;;;8.25;;
41221;SDS011;26952;42.884;23.918;2023-02-01T11:07:25;13.88;;;12.27;;
41221;SDS011;26952;42.884;23.918;2023-02-01T11:09:52;15.10;;;13.05;;
41221;SDS011;26952;42.884;23.918;2023-02-01T11:12:22;14.00;;;12.73;;
41221;SDS011;26952;42.884;23.918;2023-02-01T11:14:48;14.07;;;12.77;;
41221;SDS011;26952;42.884;23.918;2023-02-01T11:19:39;12.35;;;11.25;;
41221;SDS011;26952;42.884;23.918;2023-02-01T11:22:09;13.10;;;11.95;;
41221;SDS011;26952;42.884;23.918;2023-02-01T11:24:37;15.38;;;13.90;;
41221;SDS011;26952;42.884;23.918;2023-02-01T11:27:04;15.98;;;14.27;;
41221;SDS011;26952;42.884;23.918;2023-02-01T11:29:45;14.98;;;13.57;;
41221;SDS011;26952;42.884;23.918;2023-02-01T11:32:16;18.38;;;15.25;;
41221;SDS011;26952;42.884;23.918;2023-02-01T11:37:20;15.65;;;13.98;;
41221;SDS011;26952;42.884;23.918;2023-02-01T11:39:55;14.07;;;11.00;;
41221;SDS011;26952;42.884;23.918;2023-02-01T11:42:23;12.40;;;10.63;;
41221;SDS011;26952;42.884;23.918;2023-02-01T11:44:49;13.48;;;10.02;;
41221;SDS011;26952;42.884;23.918;2023-02-01T11:47:24;8.40;;;7.38;;
41221;SDS011;26952;42.884;23.918;2023-02-01T11:49:50;12.52;;;9.85;;
41221;SDS011;26952;42.884;23.918;2023-02-01T11:52:34;10.90;;;9.80;;
41221;SDS011;26952;42.884;23.918;2023-02-01T11:55:33;10.85;;;9.82;;
41221;SDS011;26952;42.884;23.918;2023-02-01T12:09:40;4.63;;;4.22;;
41221;SDS011;26952;42.884;23.918;2023-02-01T12:17:41;5.38;;;4.53;;
41221;SDS011;26952;42.884;23.918;2023-02-01T12:39:40;6.15;;;5.00;;
41221;SDS011;26952;42.884;23.918;2023-02-01T12:42:18;5.53;;;4.65;;
41221;SDS011;26952;42.884;23.918;2023-02-01T12:44:56;4.60;;;4.20;;
41221;SDS011;26952;42.884;23.918;2023-02-01T12:50:14;6.22;;;5.82;;
41221;SDS011;26952;42.884;23.918;2023-02-01T12:52:48;5.72;;;5.32;;
41221;SDS011;26952;42.884;23.918;2023-02-01T13:00:50;9.32;;;8.73;;
41221;SDS011;26952;42.884;23.918;2023-02-01T13:06:16;8.85;;;8.35;;
41221;SDS011;26952;42.884;23.918;2023-02-01T13:08:47;9.48;;;9.00;;
41221;SDS011;26952;42.884;23.918;2023-02-01T13:11:22;9.75;;;9.25;;
41221;SDS011;26952;42.884;23.918;2023-02-01T13:13:58;9.00;;;8.40;;
41221;SDS011;26952;42.884;23.918;2023-02-01T13:16:45;8.25;;;7.65;;
41221;SDS011;26952;42.884;23.918;2023-02-01T13:22:14;9.65;;;9.05;;
41221;SDS011;26952;42.884;23.918;2023-02-01T13:25:18;9.70;;;8.90;;
41221;SDS011;26952;42.884;23.918;2023-02-01T13:27:38;8.43;;;7.85;;
41221;SDS011;26952;42.884;23.918;2023-02-01T13:43:39;4.15;;;3.55;;
41221;SDS011;26952;42.884;23.918;2023-02-01T13:46:15;2.88;;;2.33;;
41221;SDS011;26952;42.884;23.918;2023-02-01T13:48:55;2.72;;;2.53;;
41221;SDS011;26952;42.884;23.918;2023-02-01T13:51:32;3.85;;;2.70;;
41221;SDS011;26952;42.884;23.918;2023-02-01T13:53:58;3.40;;;2.38;;
41221;SDS011;26952;42.884;23.918;2023-02-01T13:56:24;3.22;;;2.78;;
41221;SDS011;26952;42.884;23.918;2023-02-01T13:58:50;3.13;;;2.83;;
41221;SDS011;26952;42.884;23.918;2023-02-01T14:06:47;2.28;;;2.17;;
41221;SDS011;26952;42.884;23.918;2023-02-01T14:09:19;3.75;;;3.47;;
41221;SDS011;26952;42.884;23.918;2023-02-01T14:11:57;7.67;;;7.17;;
41221;SDS011;26952;42.884;23.918;2023-02-01T14:19:21;7.28;;;6.78;;
41221;SDS011;26952;42.884;23.918;2023-02-01T14:21:52;5.88;;;5.50;;
41221;SDS011;26952;42.884;23.918;2023-02-01T14:24:27;10.52;;;9.80;;
41221;SDS011;26952;42.884;23.918;2023-02-01T14:27:01;11.95;;;11.25;;
41221;SDS011;26952;42.884;23.918;2023-02-01T14:29:43;14.82;;;13.93;;
41221;SDS011;26952;42.884;23.918;2023-02-01T14:32:23;13.20;;;12.57;;
41221;SDS011;26952;42.884;23.918;2023-02-01T14:34:53;11.23;;;10.73;;
41221;SDS011;26952;42.884;23.918;2023-02-01T14:37:25;9.43;;;8.95;;
41221;SDS011;26952;42.884;23.918;2023-02-01T14:40:00;7.80;;;7.40;;
41221;SDS011;26952;42.884;23.918;2023-02-01T14:58:36;3.22;;;2.92;;
41221;SDS011;26952;42.884;23.918;2023-02-01T15:08:49;4.13;;;3.92;;
41221;SDS011;26952;42.884;23.918;2023-02-01T15:11:20;3.58;;;3.38;;
41221;SDS011;26952;42.884;23.918;2023-02-01T15:13:51;3.33;;;2.95;;
41221;SDS011;26952;42.884;23.918;2023-02-01T15:16:20;3.70;;;3.40;;
41221;SDS011;26952;42.884;23.918;2023-02-01T15:18:47;6.28;;;5.68;;
41221;SDS011;26952;42.884;23.918;2023-02-01T15:23:47;6.18;;;5.68;;
41221;SDS011;26952;42.884;23.918;2023-02-01T15:26:29;5.90;;;5.35;;
41221;SDS011;26952;42.884;23.918;2023-02-01T15:28:59;7.22;;;6.50;;
41221;SDS011;26952;42.884;23.918;2023-02-01T15:31:32;5.63;;;5.32;;
41221;SDS011;26952;42.884;23.918;2023-02-01T15:33:58;5.75;;;5.25;;
41221;SDS011;26952;42.884;23.918;2023-02-01T15:36:23;4.10;;;3.80;;
41221;SDS011;26952;42.884;23.918;2023-02-01T15:39:12;3.78;;;3.47;;
41221;SDS011;26952;42.884;23.918;2023-02-01T15:42:00;3.65;;;3.35;;
41221;SDS011;26952;42.884;23.918;2023-02-01T15:44:37;3.78;;;3.58;;
41221;SDS011;26952;42.884;23.918;2023-02-01T15:47:18;3.45;;;3.25;;
41221;SDS011;26952;42.884;23.918;2023-02-01T15:49:52;3.38;;;3.17;;
41221;SDS011;26952;42.884;23.918;2023-02-01T15:52:24;4.15;;;3.55;;
41221;SDS011;26952;42.884;23.918;2023-02-01T15:54:52;3.17;;;2.97;;
41221;SDS011;26952;42.884;23.918;2023-02-01T15:57:25;3.10;;;2.90;;
41221;SDS011;26952;42.884;23.918;2023-02-01T15:59:56;3.03;;;2.83;;
41221;SDS011;26952;42.884;23.918;2023-02-01T16:02:38;2.92;;;2.72;;
41221;SDS011;26952;42.884;23.918;2023-02-01T16:08:00;2.70;;;2.60;;
41221;SDS011;26952;42.884;23.918;2023-02-01T16:10:47;2.67;;;2.47;;
41221;SDS011;26952;42.884;23.918;2023-02-01T16:13:14;3.13;;;2.80;;
41221;SDS011;26952;42.884;23.918;2023-02-01T16:15:40;3.13;;;2.85;;
41221;SDS011;26952;42.884;23.918;2023-02-01T16:18:07;2.88;;;2.70;;
41221;SDS011;26952;42.884;23.918;2023-02-01T16:20:33;4.00;;;3.72;;
41221;SDS011;26952;42.884;23.918;2023-02-01T16:23:00;3.92;;;3.63;;
41221;SDS011;26952;42.884;23.918;2023-02-01T16:25:26;4.13;;;3.78;;
41221;SDS011;26952;42.884;23.918;2023-02-01T16:27:52;3.42;;;3.22;;
41221;SDS011;26952;42.884;23.918;2023-02-01T16:30:17;3.90;;;3.55;;
41221;SDS011;26952;42.884;23.918;2023-02-01T16:37:52;4.30;;;4.00;;
41221;SDS011;26952;42.884;23.918;2023-02-01T16:40:18;4.47;;;4.05;;
41221;SDS011;26952;42.884;23.918;2023-02-01T16:42:46;4.50;;;4.20;;
41221;SDS011;26952;42.884;23.918;2023-02-01T16:45:15;4.93;;;4.60;;
41221;SDS011;26952;42.884;23.918;2023-02-01T16:47:42;7.82;;;4.78;;
41221;SDS011;26952;42.884;23.918;2023-02-01T16:50:16;4.22;;;3.88;;
41221;SDS011;26952;42.884;23.918;2023-02-01T16:52:43;3.67;;;3.38;;
41221;SDS011;26952;42.884;23.918;2023-02-01T16:55:13;5.80;;;3.08;;
41221;SDS011;26952;42.884;23.918;2023-02-01T16:57:40;3.33;;;3.03;;
41221;SDS011;26952;42.884;23.918;2023-02-01T17:00:07;3.47;;;2.97;;
41221;SDS011;26952;42.884;23.918;2023-02-01T17:02:34;3.42;;;2.95;;
41221;SDS011;26952;42.884;23.918;2023-02-01T17:04:59;3.20;;;3.00;;
41221;SDS011;26952;42.884;23.918;2023-02-01T17:07:25;5.28;;;4.78;;
41221;SDS011;26952;42.884;23.918;2023-02-01T17:09:51;4.70;;;4.30;;
41221;SDS011;26952;42.884;23.918;2023-02-01T17:14:49;6.00;;;5.70;;
41221;SDS011;26952;42.884;23.918;2023-02-01T17:17:16;6.93;;;6.53;;
41221;SDS011;26952;42.884;23.918;2023-02-01T17:19:47;6.57;;;6.28;;
41221;SDS011;26952;42.884;23.918;2023-02-01T17:22:21;6.13;;;5.82;;
41221;SDS011;26952;42.884;23.918;2023-02-01T17:24:48;6.35;;;5.95;;
41221;SDS011;26952;42.884;23.918;2023-02-01T17:27:14;5.88;;;5.45;;
41221;SDS011;26952;42.884;23.918;2023-02-01T17:29:41;4.82;;;4.32;;
41221;SDS011;26952;42.884;23.918;2023-02-01T17:32:10;4.63;;;4.32;;
41221;SDS011;26952;42.884;23.918;2023-02-01T17:34:45;5.10;;;4.72;;
41221;SDS011;26952;42.884;23.918;2023-02-01T17:37:31;5.53;;;5.00;;